createdAt,value
2022-08-02T00:00:35.120Z,1.90
2022-08-02T00:03:04.552Z,1.77
2022-08-02T00:05:32.508Z,3.05
2022-08-02T00:08:00.543Z,2.40
2022-08-02T00:10:28.994Z,2.78
2022-08-02T00:12:58.846Z,1.40
2022-08-02T00:15:27.251Z,1.35
2022-08-02T00:17:55.302Z,1.77
2022-08-02T00:20:24.753Z,1.40
2022-08-02T00:22:52.780Z,3.03
2022-08-02T00:25:20.881Z,1.98
2022-08-02T00:27:48.824Z,3.50
2022-08-02T00:30:16.869Z,6.68
2022-08-02T00:32:44.860Z,3.60
2022-08-02T00:35:12.809Z,3.70
2022-08-02T00:37:42.964Z,1.80
2022-08-02T00:40:11.829Z,2.03
2022-08-02T00:42:40.118Z,1.50
2022-08-02T00:45:09.472Z,3.10
2022-08-02T00:47:37.667Z,3.95
2022-08-02T00:50:06.650Z,2.28
2022-08-02T00:52:34.670Z,3.03
2022-08-02T00:55:04.230Z,1.75
2022-08-02T00:57:32.218Z,2.47
2022-08-02T01:00:00.218Z,2.65
2022-08-02T01:02:28.229Z,2.03
2022-08-02T01:04:56.170Z,1.90
2022-08-02T01:07:24.130Z,1.98
2022-08-02T01:09:52.106Z,2.17
2022-08-02T01:12:21.810Z,2.38
2022-08-02T01:14:52.380Z,2.38
2022-08-02T01:17:29.498Z,5.68
2022-08-02T01:20:06.153Z,2.05
2022-08-02T01:23:01.613Z,2.65
2022-08-02T01:25:51.621Z,3.63
2022-08-02T01:28:37.703Z,3.60
2022-08-02T01:31:12.073Z,2.67
2022-08-02T01:33:46.512Z,5.35
2022-08-02T01:36:18.827Z,2.20
2022-08-02T01:38:50.598Z,2.85
2022-08-02T01:41:21.432Z,1.67
2022-08-02T01:43:54.859Z,1.77
2022-08-02T01:46:24.301Z,1.25
2022-08-02T01:48:54.698Z,5.00
2022-08-02T01:51:44.075Z,2.28
2022-08-02T01:54:15.852Z,5.72
2022-08-02T01:56:45.619Z,4.10
2022-08-02T01:59:19.806Z,2.75
2022-08-02T02:01:50.811Z,2.60
2022-08-02T02:04:22.029Z,4.72
2022-08-02T02:06:51.012Z,2.20
2022-08-02T02:09:20.228Z,3.13
2022-08-02T02:12:12.001Z,1.60
2022-08-02T02:14:40.040Z,1.95
2022-08-02T02:17:09.292Z,1.90
2022-08-02T02:20:00.115Z,1.75
2022-08-02T02:22:28.265Z,1.73
2022-08-02T02:24:56.407Z,1.90
2022-08-02T02:27:24.989Z,2.85
2022-08-02T02:29:55.656Z,2.10
2022-08-02T02:32:28.828Z,2.42
2022-08-02T02:34:57.394Z,3.00
2022-08-02T02:37:29.155Z,3.72
2022-08-02T02:39:59.287Z,4.05
2022-08-02T02:42:30.312Z,2.10
2022-08-02T02:45:01.153Z,2.17
2022-08-02T02:47:41.115Z,3.47
2022-08-02T02:50:10.980Z,3.75
2022-08-02T02:52:40.823Z,2.70
2022-08-02T02:55:10.694Z,2.85
2022-08-02T02:57:40.115Z,2.35
2022-08-02T03:00:13.161Z,7.28
2022-08-02T03:02:43.552Z,2.25
2022-08-02T03:05:13.057Z,5.03
2022-08-02T03:07:41.309Z,1.85
2022-08-02T03:10:10.814Z,2.88
2022-08-02T03:12:39.674Z,4.60
2022-08-02T03:15:11.528Z,3.30
2022-08-02T03:17:41.170Z,2.10
2022-08-02T03:20:12.003Z,5.65
2022-08-02T03:22:40.045Z,1.60
2022-08-02T03:25:09.614Z,3.22
2022-08-02T03:27:37.947Z,2.60
2022-08-02T03:30:08.307Z,3.45
2022-08-02T03:32:40.073Z,4.53
2022-08-02T03:35:10.447Z,1.95
2022-08-02T03:37:39.401Z,4.80
2022-08-02T03:40:10.391Z,2.10
2022-08-02T03:42:40.180Z,3.03
2022-08-02T03:45:11.512Z,4.10
2022-08-02T03:47:41.719Z,2.08
2022-08-02T03:50:13.342Z,4.53
2022-08-02T03:52:43.512Z,1.80
2022-08-02T03:55:13.723Z,2.85
2022-08-02T03:57:43.199Z,4.70
2022-08-02T04:00:13.545Z,2.17
2022-08-02T04:02:43.202Z,2.78
2022-08-02T04:05:11.970Z,3.00
2022-08-02T04:08:33.250Z,2.10
2022-08-02T04:10:28.167Z,2.40
2022-08-02T04:12:56.677Z,3.47
2022-08-02T04:15:25.527Z,2.40
2022-08-02T04:17:57.848Z,2.78
2022-08-02T04:20:29.663Z,2.28
2022-08-02T04:23:01.824Z,2.65
2022-08-02T04:25:35.696Z,3.83
2022-08-02T04:28:16.931Z,2.85
2022-08-02T04:30:47.609Z,2.08
2022-08-02T04:33:17.779Z,2.40
2022-08-02T04:35:46.519Z,2.47
2022-08-02T04:38:16.096Z,3.10
2022-08-02T04:40:52.351Z,3.22
2022-08-02T04:43:20.904Z,3.55
2022-08-02T04:45:50.726Z,2.75
2022-08-02T04:48:20.448Z,2.13
2022-08-02T04:50:48.417Z,2.72
2022-08-02T04:53:17.036Z,1.67
2022-08-02T04:55:45.010Z,2.08
2022-08-02T04:58:38.886Z,4.15
2022-08-02T05:01:01.182Z,3.05
2022-08-02T05:03:30.587Z,2.45
2022-08-02T05:05:58.543Z,4.20
2022-08-02T05:08:26.499Z,4.25
2022-08-02T05:10:54.504Z,7.28
2022-08-02T05:13:22.467Z,2.75
2022-08-02T05:15:50.991Z,4.00
2022-08-02T05:18:19.210Z,3.30
2022-08-02T05:20:48.526Z,3.75
2022-08-02T05:23:16.614Z,1.90
2022-08-02T05:25:44.544Z,3.50
2022-08-02T05:28:12.554Z,1.80
2022-08-02T05:30:41.485Z,2.05
2022-08-02T05:33:09.677Z,2.20
2022-08-02T05:35:37.693Z,3.15
2022-08-02T05:38:10.094Z,2.35
2022-08-02T05:40:54.263Z,3.45
2022-08-02T05:43:24.077Z,6.60
2022-08-02T05:45:53.710Z,3.65
2022-08-02T05:48:25.421Z,2.35
2022-08-02T05:51:04.737Z,4.18
2022-08-02T05:53:40.389Z,5.43
2022-08-02T05:56:19.454Z,6.38
2022-08-02T05:58:54.306Z,2.25
2022-08-02T06:01:29.546Z,5.75
2022-08-02T06:04:00.682Z,5.82
2022-08-02T06:06:31.120Z,11.43
2022-08-02T06:09:06.788Z,8.65
2022-08-02T06:11:38.194Z,7.95
2022-08-02T06:14:07.802Z,7.85
2022-08-02T06:16:42.238Z,9.13
2022-08-02T06:19:10.613Z,7.80
2022-08-02T06:22:32.483Z,42.10
2022-08-02T06:24:34.414Z,17.90
2022-08-02T06:27:03.749Z,32.67
2022-08-02T06:29:38.483Z,21.52
2022-08-02T06:32:09.029Z,27.35
2022-08-02T06:34:41.036Z,22.05
2022-08-02T06:37:20.218Z,36.13
2022-08-02T06:39:53.092Z,25.30
2022-08-02T06:42:27.234Z,14.48
2022-08-02T06:44:58.234Z,18.52
2022-08-02T06:47:27.340Z,19.42
2022-08-02T06:49:57.130Z,18.27
2022-08-02T06:52:29.609Z,12.02
2022-08-02T06:55:00.825Z,12.48
2022-08-02T06:57:29.866Z,11.00
2022-08-02T06:59:58.415Z,7.03
2022-08-02T07:02:26.805Z,8.73
2022-08-02T07:04:55.869Z,7.13
2022-08-02T07:07:24.103Z,5.20
2022-08-02T07:09:57.265Z,5.68
2022-08-02T07:12:31.853Z,4.80
2022-08-02T07:15:00.417Z,3.03
2022-08-02T07:17:28.616Z,4.00
2022-08-02T07:19:56.750Z,3.60
2022-08-02T07:22:27.032Z,3.75
2022-08-02T07:24:56.271Z,5.07
2022-08-02T07:27:24.885Z,9.93
2022-08-02T07:29:54.793Z,11.80
2022-08-02T07:32:26.489Z,9.02
2022-08-02T07:34:55.780Z,4.22
2022-08-02T07:37:54.296Z,6.28
2022-08-02T07:40:20.097Z,6.03
2022-08-02T07:42:49.777Z,4.10
2022-08-02T07:45:19.669Z,3.30
2022-08-02T07:47:47.799Z,7.93
2022-08-02T07:50:17.569Z,6.95
2022-08-02T07:52:46.823Z,5.75
2022-08-02T07:55:17.869Z,4.30
2022-08-02T07:57:47.129Z,4.57
2022-08-02T08:00:17.460Z,7.05
2022-08-02T08:02:48.200Z,4.13
2022-08-02T08:05:16.578Z,7.63
2022-08-02T08:07:44.557Z,4.80
2022-08-02T08:10:12.742Z,3.00
2022-08-02T08:12:40.815Z,2.75
2022-08-02T08:15:09.814Z,8.38
2022-08-02T08:17:38.624Z,6.97
2022-08-02T08:20:11.748Z,4.72
2022-08-02T08:22:42.068Z,4.00
2022-08-02T08:25:10.442Z,4.47
2022-08-02T08:27:38.450Z,6.13
2022-08-02T08:30:08.065Z,4.43
2022-08-02T08:32:36.135Z,5.85
2022-08-02T08:35:06.938Z,3.80
2022-08-02T08:37:36.736Z,4.00
2022-08-02T08:40:05.927Z,4.38
2022-08-02T08:42:34.600Z,8.88
2022-08-02T08:45:03.317Z,10.48
2022-08-02T08:47:35.755Z,6.70
2022-08-02T08:50:06.609Z,3.80
2022-08-02T08:52:44.564Z,4.95
2022-08-02T08:55:13.004Z,4.93
2022-08-02T08:57:43.109Z,9.80
2022-08-02T09:00:13.501Z,9.07
2022-08-02T09:02:42.812Z,9.07
2022-08-02T09:05:12.295Z,10.43
2022-08-02T09:07:44.738Z,4.93
2022-08-02T09:10:36.191Z,3.78
2022-08-02T09:13:37.859Z,19.33
2022-08-02T09:16:13.071Z,4.40
2022-08-02T09:18:44.913Z,4.80
2022-08-02T09:21:14.781Z,6.50
2022-08-02T09:23:46.169Z,4.60
2022-08-02T09:26:15.241Z,5.50
2022-08-02T09:28:44.761Z,5.05
2022-08-02T09:31:14.639Z,3.72
2022-08-02T09:33:44.124Z,4.68
2022-08-02T09:36:14.032Z,3.42
2022-08-02T09:38:52.716Z,4.85
2022-08-02T09:41:26.267Z,6.18
2022-08-02T09:44:04.326Z,3.08
2022-08-02T09:46:38.449Z,4.15
2022-08-02T09:49:09.411Z,4.53
2022-08-02T09:51:39.284Z,4.43
2022-08-02T09:54:09.443Z,6.47
2022-08-02T09:56:50.211Z,4.95
2022-08-02T09:59:20.142Z,3.10
2022-08-02T10:02:14.672Z,2.72
2022-08-02T10:04:53.036Z,3.65
2022-08-02T10:07:22.945Z,7.00
2022-08-02T10:09:51.868Z,7.38
2022-08-02T10:12:22.437Z,5.07
2022-08-02T10:14:52.529Z,3.30
2022-08-02T10:17:21.346Z,2.63
2022-08-02T10:20:02.999Z,5.70
2022-08-02T10:22:33.392Z,4.97
2022-08-02T10:25:04.148Z,4.90
2022-08-02T10:27:55.532Z,2.47
2022-08-02T10:30:24.566Z,2.55
2022-08-02T10:32:55.038Z,3.42
2022-08-02T10:35:26.708Z,7.35
2022-08-02T10:38:01.514Z,2.50
2022-08-02T10:40:44.737Z,7.20
2022-08-02T10:43:15.067Z,4.05
2022-08-02T10:45:44.182Z,5.32
2022-08-02T10:48:15.489Z,10.25
2022-08-02T10:50:56.447Z,2.75
2022-08-02T10:53:26.237Z,9.82
2022-08-02T10:55:55.235Z,1.63
2022-08-02T10:58:29.296Z,3.92
2022-08-02T11:00:59.077Z,5.38
2022-08-02T11:03:41.320Z,7.78
2022-08-02T11:06:25.098Z,2.17
2022-08-02T11:09:31.955Z,4.78
2022-08-02T11:12:03.903Z,5.07
2022-08-02T11:14:35.164Z,3.97
2022-08-02T11:17:16.959Z,4.72
2022-08-02T11:20:17.589Z,5.25
2022-08-02T11:22:47.067Z,2.53
2022-08-02T11:26:02.162Z,2.20
2022-08-02T11:28:26.111Z,4.90
2022-08-02T11:31:03.086Z,4.38
2022-08-02T11:33:36.901Z,3.88
2022-08-02T11:36:07.448Z,2.83
2022-08-02T11:38:35.721Z,3.88
2022-08-02T11:41:06.441Z,3.70
2022-08-02T11:43:38.688Z,2.00
2022-08-02T11:46:14.363Z,3.83
2022-08-02T11:48:44.002Z,3.72
2022-08-02T11:51:14.691Z,4.45
2022-08-02T11:53:45.981Z,12.07
2022-08-02T11:56:24.829Z,4.78
2022-08-02T11:59:07.528Z,2.15
2022-08-02T12:01:45.832Z,5.50
2022-08-02T12:04:19.275Z,4.78
2022-08-02T12:06:58.772Z,2.38
2022-08-02T12:09:28.771Z,1.92
2022-08-02T12:11:57.584Z,7.72
2022-08-02T12:14:27.677Z,4.38
2022-08-02T12:17:15.038Z,3.03
2022-08-02T12:19:44.089Z,6.88
2022-08-02T12:22:18.549Z,2.10
2022-08-02T12:24:49.028Z,4.07
2022-08-02T12:27:31.473Z,2.70
2022-08-02T12:30:01.833Z,5.07
2022-08-02T12:32:31.779Z,2.05
2022-08-02T12:35:08.304Z,1.98
2022-08-02T12:37:37.335Z,2.78
2022-08-02T12:40:25.408Z,3.05
2022-08-02T12:42:56.963Z,3.58
2022-08-02T12:45:25.484Z,2.67
2022-08-02T12:47:56.793Z,3.00
2022-08-02T12:50:27.664Z,2.65
2022-08-02T12:53:05.606Z,3.78
2022-08-02T12:56:01.875Z,2.47
2022-08-02T12:58:26.650Z,2.65
2022-08-02T13:00:57.378Z,1.67
2022-08-02T13:04:10.373Z,2.17
2022-08-02T13:06:41.120Z,3.33
2022-08-02T13:09:03.465Z,5.35
2022-08-02T13:11:31.549Z,2.10
2022-08-02T13:13:59.520Z,1.50
2022-08-02T13:16:30.771Z,2.92
2022-08-02T13:19:01.241Z,3.17
2022-08-02T13:21:40.609Z,3.78
2022-08-02T13:24:33.091Z,2.53
2022-08-02T13:27:08.043Z,2.53
2022-08-02T13:29:37.245Z,3.42
2022-08-02T13:32:05.479Z,3.10
2022-08-02T13:34:34.842Z,2.25
2022-08-02T13:37:03.284Z,4.65
2022-08-02T13:39:31.308Z,2.20
2022-08-02T13:41:59.350Z,1.77
2022-08-02T13:44:27.279Z,1.10
2022-08-02T13:46:55.309Z,1.10
2022-08-02T13:49:51.198Z,1.08
2022-08-02T13:52:13.660Z,1.50
2022-08-02T13:54:41.836Z,1.00
2022-08-02T13:57:09.772Z,3.28
2022-08-02T13:59:57.624Z,3.20
2022-08-02T14:02:26.356Z,1.85
2022-08-02T14:04:54.283Z,1.42
2022-08-02T14:07:23.731Z,10.15
2022-08-02T14:09:51.686Z,1.80
2022-08-02T14:12:20.533Z,3.85
2022-08-02T14:14:48.556Z,3.30
2022-08-02T14:17:18.799Z,4.80
2022-08-02T14:19:47.025Z,2.97
2022-08-02T14:22:15.019Z,3.03
2022-08-02T14:24:44.656Z,1.95
2022-08-02T14:27:13.559Z,2.17
2022-08-02T14:29:41.557Z,2.65
2022-08-02T14:32:10.250Z,4.95
2022-08-02T14:34:38.585Z,1.13
2022-08-02T14:37:06.595Z,2.08
2022-08-02T14:39:42.899Z,2.67
2022-08-02T14:42:23.977Z,2.28
2022-08-02T14:44:51.960Z,1.23
2022-08-02T14:47:20.167Z,2.25
2022-08-02T14:49:50.292Z,2.33
2022-08-02T14:52:19.028Z,1.30
2022-08-02T14:54:47.312Z,3.97
2022-08-02T14:57:15.579Z,3.60
2022-08-02T14:59:44.981Z,1.63
2022-08-02T15:02:13.817Z,1.90
2022-08-02T15:04:43.813Z,7.22
2022-08-02T15:07:13.211Z,3.17
2022-08-02T15:09:41.638Z,4.00
2022-08-02T15:12:10.754Z,2.53
2022-08-02T15:14:38.877Z,2.08
2022-08-02T15:17:08.615Z,2.10
2022-08-02T15:19:58.841Z,1.55
2022-08-02T15:22:24.750Z,5.38
2022-08-02T15:24:53.135Z,2.05
2022-08-02T15:27:21.243Z,5.43
2022-08-02T15:29:49.396Z,1.30
2022-08-02T15:32:19.832Z,2.13
2022-08-02T15:34:48.613Z,2.25
2022-08-02T15:37:16.557Z,3.80
2022-08-02T15:39:44.869Z,1.10
2022-08-02T15:42:13.697Z,4.43
2022-08-02T15:44:41.912Z,3.28
2022-08-02T15:47:09.960Z,1.75
2022-08-02T15:49:41.558Z,3.33
2022-08-02T15:52:10.500Z,2.53
2022-08-02T15:54:38.796Z,3.42
2022-08-02T15:57:06.993Z,5.90
2022-08-02T15:59:35.013Z,1.92
2022-08-02T16:02:03.374Z,4.72
2022-08-02T16:04:31.464Z,1.30
2022-08-02T16:07:01.356Z,4.03
2022-08-02T16:09:29.763Z,2.95
2022-08-02T16:11:57.830Z,2.55
2022-08-02T16:14:25.872Z,1.77
2022-08-02T16:16:53.889Z,2.22
2022-08-02T16:19:46.062Z,1.88
2022-08-02T16:22:13.876Z,3.33
2022-08-02T16:24:42.180Z,1.92
2022-08-02T16:27:10.145Z,1.80
2022-08-02T16:29:38.225Z,2.22
2022-08-02T16:32:06.918Z,5.00
2022-08-02T16:34:56.689Z,3.78
2022-08-02T16:37:24.756Z,2.97
2022-08-02T16:39:52.759Z,7.00
2022-08-02T16:42:25.406Z,1.70
2022-08-02T16:44:54.878Z,4.18
2022-08-02T16:47:43.557Z,2.53
2022-08-02T16:50:11.655Z,1.70
2022-08-02T16:52:41.346Z,5.05
2022-08-02T16:55:11.285Z,5.63
2022-08-02T16:57:43.267Z,4.43
2022-08-02T17:00:15.396Z,12.82
2022-08-02T17:02:44.439Z,2.22
2022-08-02T17:05:15.768Z,2.58
2022-08-02T17:08:08.276Z,5.13
2022-08-02T17:10:34.634Z,2.63
2022-08-02T17:13:11.262Z,3.03
2022-08-02T17:16:17.321Z,3.28
2022-08-02T17:18:28.898Z,1.45
2022-08-02T17:20:58.060Z,1.58
2022-08-02T17:24:03.898Z,4.10
2022-08-02T17:26:16.147Z,2.03
2022-08-02T17:29:14.389Z,2.13
2022-08-02T17:31:37.136Z,2.88
2022-08-02T17:34:07.445Z,1.50
2022-08-02T17:36:35.401Z,3.30
2022-08-02T17:41:53.105Z,2.03
2022-08-02T17:44:37.262Z,4.72
2022-08-02T17:47:08.461Z,5.15
2022-08-02T17:49:44.403Z,4.00
2022-08-02T17:52:52.468Z,1.38
2022-08-02T17:55:07.017Z,3.05
2022-08-02T17:57:56.002Z,3.45
2022-08-02T18:00:24.565Z,5.07
2022-08-02T18:02:55.563Z,2.40
2022-08-02T18:05:39.028Z,3.83
2022-08-02T18:08:10.011Z,2.95
2022-08-02T18:10:39.479Z,2.58
2022-08-02T18:13:07.723Z,4.22
2022-08-02T18:15:35.857Z,2.45
2022-08-02T18:18:04.161Z,1.88
2022-08-02T18:20:32.158Z,3.20
2022-08-02T18:23:00.412Z,1.60
2022-08-02T18:25:37.508Z,1.60
2022-08-02T18:28:15.379Z,1.48
2022-08-02T18:30:43.604Z,2.38
2022-08-02T18:33:58.937Z,2.13
2022-08-02T18:35:59.634Z,4.40
2022-08-02T18:38:30.476Z,1.67
2022-08-02T18:41:02.231Z,2.30
2022-08-02T18:46:21.196Z,3.25
2022-08-02T18:48:49.190Z,2.30
2022-08-02T18:51:18.640Z,2.53
2022-08-02T18:53:48.931Z,3.17
2022-08-02T18:56:20.026Z,6.70
2022-08-02T18:59:07.499Z,2.20
2022-08-02T19:01:45.039Z,2.17
2022-08-02T19:04:14.717Z,3.00
2022-08-02T19:06:42.663Z,2.28
2022-08-02T19:09:14.000Z,2.72
2022-08-02T19:11:47.235Z,2.70
2022-08-02T19:14:24.007Z,5.82
2022-08-02T19:16:57.082Z,4.63
2022-08-02T19:19:29.214Z,4.75
2022-08-02T19:22:26.486Z,2.75
2022-08-02T19:24:47.162Z,3.78
2022-08-02T19:27:20.710Z,2.75
2022-08-02T19:29:55.487Z,5.60
2022-08-02T19:32:40.240Z,2.90
2022-08-02T19:35:19.686Z,3.78
2022-08-02T19:37:59.500Z,1.40
2022-08-02T19:40:28.970Z,5.32
2022-08-02T19:44:27.557Z,3.15
2022-08-02T19:45:49.830Z,5.22
2022-08-02T19:48:24.020Z,3.80
2022-08-02T19:50:56.816Z,1.88
2022-08-02T19:53:47.777Z,2.45
2022-08-02T19:56:25.208Z,2.30
2022-08-02T19:58:54.880Z,1.65
2022-08-02T20:01:36.891Z,2.47
2022-08-02T20:04:07.558Z,3.47
2022-08-02T20:06:45.403Z,6.60
2022-08-02T20:09:14.018Z,4.53
2022-08-02T20:11:45.205Z,5.28
2022-08-02T20:14:13.836Z,2.65
2022-08-02T20:16:43.171Z,4.10
2022-08-02T20:19:14.258Z,5.22
2022-08-02T20:21:50.523Z,2.47
2022-08-02T20:24:22.586Z,3.15
2022-08-02T20:26:54.914Z,1.75
2022-08-02T20:29:42.750Z,5.40
2022-08-02T20:32:14.608Z,3.95
2022-08-02T20:34:42.914Z,3.08
2022-08-02T20:37:59.455Z,5.05
2022-08-02T20:40:06.108Z,8.05
2022-08-02T20:42:35.147Z,3.00
2022-08-02T20:45:03.115Z,7.03
2022-08-02T20:47:39.832Z,2.80
2022-08-02T20:50:30.685Z,1.67
2022-08-02T20:53:00.386Z,1.92
2022-08-02T20:55:31.097Z,3.33
2022-08-02T20:58:01.847Z,3.80
2022-08-02T21:00:31.880Z,2.75
2022-08-02T21:03:02.664Z,3.92
2022-08-02T21:05:43.657Z,4.40
2022-08-02T21:08:21.496Z,4.03
2022-08-02T21:10:52.269Z,2.95
2022-08-02T21:13:24.090Z,2.13
2022-08-02T21:15:53.231Z,3.25
2022-08-02T21:18:30.402Z,2.95
2022-08-02T21:21:08.792Z,4.82
2022-08-02T21:23:37.415Z,3.45
2022-08-02T21:26:06.623Z,2.25
2022-08-02T21:28:45.004Z,3.38
2022-08-02T21:31:14.980Z,1.70
2022-08-02T21:33:56.801Z,3.45
2022-08-02T21:36:30.663Z,2.88
2022-08-02T21:39:04.538Z,6.28
2022-08-02T21:41:39.786Z,1.90
2022-08-02T21:44:15.907Z,5.28
2022-08-02T21:46:45.477Z,5.00
2022-08-02T21:49:16.315Z,3.25
2022-08-02T21:51:49.234Z,4.85
2022-08-02T21:54:20.281Z,3.15
2022-08-02T21:56:52.111Z,7.63
2022-08-02T21:59:25.664Z,4.97
2022-08-02T22:01:56.814Z,2.38
2022-08-02T22:04:27.414Z,3.55
2022-08-02T22:06:56.002Z,2.53
2022-08-02T22:09:43.568Z,4.53
2022-08-02T22:12:17.743Z,3.67
2022-08-02T22:14:49.404Z,3.22
2022-08-02T22:17:21.643Z,2.88
2022-08-02T22:20:12.718Z,2.83
2022-08-02T22:22:41.996Z,4.95
2022-08-02T22:25:27.010Z,4.72
2022-08-02T22:28:35.302Z,4.05
2022-08-02T22:30:46.733Z,4.07
2022-08-02T22:33:41.939Z,2.60
2022-08-02T22:36:15.993Z,2.58
2022-08-02T22:38:44.824Z,4.03
2022-08-02T22:41:13.627Z,6.60
2022-08-02T22:43:42.163Z,5.35
2022-08-02T22:46:10.514Z,4.72
2022-08-02T22:48:43.866Z,3.63
2022-08-02T22:51:12.635Z,3.33
2022-08-02T22:53:42.920Z,3.45
2022-08-02T22:56:11.852Z,2.30
2022-08-02T22:58:49.252Z,3.10
2022-08-02T22:59:00.260Z,5.72
2022-08-02T23:01:28.356Z,2.45
2022-08-02T23:03:56.347Z,3.65
2022-08-02T23:06:24.295Z,3.58
2022-08-02T23:08:53.692Z,6.05
2022-08-02T23:11:23.137Z,3.05
2022-08-02T23:13:51.147Z,3.85
2022-08-02T23:16:39.728Z,2.95
2022-08-02T23:19:25.199Z,5.03
2022-08-02T23:22:01.661Z,3.05
2022-08-02T23:24:33.906Z,2.10
2022-08-02T23:27:02.281Z,2.88
2022-08-02T23:29:30.296Z,4.18
2022-08-02T23:31:59.029Z,2.45
2022-08-02T23:34:27.347Z,4.38
2022-08-02T23:36:55.323Z,4.80
2022-08-02T23:39:23.351Z,5.03
2022-08-02T23:41:55.067Z,2.55
2022-08-02T23:44:24.166Z,2.28
2022-08-02T23:46:52.866Z,4.15
2022-08-02T23:49:21.582Z,5.05
2022-08-02T23:51:50.019Z,2.65
2022-08-02T23:54:18.629Z,6.43
2022-08-02T23:56:46.912Z,2.67
2022-08-02T23:59:16.631Z,2.42
